Time;durP1;ratioP1;P1;durP2;ratioP2;P2;SDS_P1;SDS_P2;PMS_P1;PMS_P2;Temp;Humidity;BMP_temperature;BMP_pressure;BME280_temperature;BME280_humidity;BME280_pressure;Samples;Min_cycle;Max_cycle;Signal;HPM_P1;HPM_P2
2021/12/08 00:03:30;;;;;;;48.15;16.77;;;;;;;-1.81;100.00;98802.09;4192287;83;43744;-73
2021/12/08 00:09:48;;;;;;;47.67;16.20;;;;;;;-1.79;100.00;98795.33;4182438;83;43718;-72
2021/12/08 00:15:52;;;;;;;49.27;16.75;;;;;;;-1.78;100.00;98798.30;4193508;83;43777;-72
2021/12/08 00:21:54;;;;;;;47.57;15.80;;;;;;;-1.69;100.00;98790.28;4188596;83;28519;-72
2021/12/08 00:27:57;;;;;;;47.83;16.60;;;;;;;-1.77;100.00;98810.00;4160066;83;43754;-72
2021/12/08 00:33:59;;;;;;;48.15;15.98;;;;;;;-1.75;100.00;98804.08;4156370;84;43739;-71
2021/12/08 00:40:00;;;;;;;46.60;16.00;;;;;;;-1.76;100.00;98810.34;4163457;84;43797;-72
2021/12/08 00:46:02;;;;;;;41.00;15.28;;;;;;;-1.75;100.00;98824.36;4155798;84;44501;-72
2021/12/08 00:52:04;;;;;;;50.88;17.07;;;;;;;-1.77;100.00;98810.48;4162881;84;42891;-73
2021/12/08 00:58:06;;;;;;;59.63;17.75;;;;;;;-1.69;100.00;98811.37;4149807;84;44631;-72
2021/12/08 01:04:09;;;;;;;61.77;20.15;;;;;;;-2.03;100.00;98814.81;4138751;84;44433;-79
2021/12/08 01:10:19;;;;;;;50.90;16.17;;;;;;;-1.93;100.00;98806.79;4147283;84;43300;-80
2021/12/08 01:16:22;;;;;;;42.93;15.38;;;;;;;-1.85;100.00;98817.39;4144632;84;43667;-80
2021/12/08 01:22:23;;;;;;;40.48;13.93;;;;;;;-1.66;100.00;98808.08;4150925;84;44493;-80
2021/12/08 01:28:24;;;;;;;49.83;15.60;;;;;;;-2.05;100.00;98797.50;4163197;84;43730;-79
2021/12/08 01:34:26;;;;;;;53.90;17.35;;;;;;;-2.19;100.00;98800.21;4166320;84;44074;-79
2021/12/08 01:40:28;;;;;;;50.28;15.63;;;;;;;-2.12;100.00;98803.89;4126280;84;43281;-78
2021/12/08 01:46:31;;;;;;;45.60;15.53;;;;;;;-2.09;100.00;98815.42;4160546;84;43671;-78
2021/12/08 01:52:32;;;;;;;44.63;15.83;;;;;;;-2.12;100.00;98806.02;4143000;84;43652;-80
2021/12/08 01:58:34;;;;;;;48.13;15.72;;;;;;;-1.93;100.00;98803.31;4131752;84;43735;-78
2021/12/08 02:04:36;;;;;;;43.10;14.43;;;;;;;-1.97;100.00;98798.37;4158838;84;44448;-79
2021/12/08 02:10:38;;;;;;;45.67;15.00;;;;;;;-2.22;100.00;98791.31;4158369;84;43265;-79
2021/12/08 02:16:39;;;;;;;44.53;14.07;;;;;;;-1.89;100.00;98790.18;4126627;84;44467;-78
2021/12/08 02:22:41;;;;;;;38.42;13.85;;;;;;;-2.22;100.00;98778.14;4151119;84;44503;-78
2021/12/08 02:28:45;;;;;;;39.18;13.20;;;;;;;-2.33;100.00;98772.15;4161334;84;44436;-78
2021/12/08 02:47:53;;;;;;;41.85;14.07;;;;;;;-2.22;100.00;98753.12;4159239;84;28477;-78
2021/12/08 02:53:47;;;;;;;41.42;12.95;;;;;;;-2.33;100.00;98755.03;4165219;84;44399;-79
2021/12/08 02:59:49;;;;;;;43.30;14.23;;;;;;;-2.68;100.00;98753.63;4153581;84;44450;-79
2021/12/08 03:05:50;;;;;;;44.25;14.93;;;;;;;-2.62;100.00;98744.77;4164370;83;44454;-78
2021/12/08 03:11:55;;;;;;;42.43;15.23;;;;;;;-2.72;100.00;98736.98;4136867;84;44412;-79
2021/12/08 03:17:56;;;;;;;32.63;11.40;;;;;;;-2.59;100.00;98716.84;4124554;84;28538;-79
2021/12/08 03:30:26;;;;;;;41.65;13.03;;;;;;;-2.56;100.00;98717.84;4141510;85;44418;-81
2021/12/08 03:36:27;;;;;;;45.17;13.95;;;;;;;-2.41;100.00;98718.91;4135665;85;43636;-80
2021/12/08 03:42:34;;;;;;;46.05;14.43;;;;;;;-2.78;100.00;98721.31;4133461;84;43231;-80
2021/12/08 03:48:44;;;;;;;44.47;14.20;;;;;;;-2.64;100.00;98717.30;4149688;84;28510;-80
2021/12/08 03:54:40;;;;;;;40.85;13.60;;;;;;;-2.63;100.00;98714.16;4121630;84;44462;-79
2021/12/08 04:00:44;;;;;;;44.13;13.20;;;;;;;-2.91;100.00;98705.91;4136165;84;44446;-79
2021/12/08 04:06:50;;;;;;;40.65;14.30;;;;;;;-2.90;100.00;98699.66;4141540;84;44436;-78
2021/12/08 04:12:53;;;;;;;41.35;13.22;;;;;;;-2.77;100.00;98683.96;4144238;84;44821;-78
2021/12/08 04:18:57;;;;;;;40.48;13.35;;;;;;;-2.88;100.00;98670.08;4100412;85;28489;-78
2021/12/08 04:25:01;;;;;;;38.45;12.30;;;;;;;-3.05;100.00;98669.64;4206696;82;44412;-78
2021/12/08 04:31:18;;;;;;;42.58;13.88;;;;;;;-3.24;100.00;98655.67;4206726;83;44447;-78
2021/12/08 04:37:27;;;;;;;47.05;14.28;;;;;;;-3.13;100.00;98655.44;4209694;82;43185;-79
2021/12/08 04:43:44;;;;;;;38.42;12.40;;;;;;;-2.89;100.00;98663.67;4203247;82;44463;-78
2021/12/08 05:02:29;;;;;;;40.58;13.38;;;;;;;-3.10;100.00;98689.81;4202796;83;44447;-78
2021/12/08 05:08:34;;;;;;;36.25;13.00;;;;;;;-3.30;100.00;98714.11;4201195;83;44411;-78
2021/12/08 05:14:39;;;;;;;37.50;12.73;;;;;;;-3.08;100.00;98695.75;4200560;83;44412;-77
2021/12/08 05:21:02;;;;;;;34.50;13.13;;;;;;;-2.82;100.00;98707.63;4195547;83;44057;-77
2021/12/08 05:27:18;;;;;;;30.72;12.33;;;;;;;-3.19;100.00;98708.62;4199969;83;43500;-78
2021/12/08 05:33:20;;;;;;;34.35;11.80;;;;;;;-3.19;100.00;98705.19;4196998;83;44230;-77
2021/12/08 05:39:25;;;;;;;33.58;11.80;;;;;;;-2.90;100.00;98708.06;4187681;83;44072;-77
2021/12/08 05:45:27;;;;;;;37.48;12.07;;;;;;;-3.06;100.00;98704.81;4192820;83;44492;-77
2021/12/08 05:51:34;;;;;;;38.63;13.32;;;;;;;-3.08;100.00;98701.81;4195199;83;44532;-76
2021/12/08 05:57:40;;;;;;;33.33;11.68;;;;;;;-3.02;100.00;98682.47;4195151;82;44143;-78
2021/12/08 06:03:44;;;;;;;39.30;13.65;;;;;;;-3.00;100.00;98667.36;4192523;83;44459;-77
2021/12/08 06:09:46;;;;;;;37.23;12.65;;;;;;;-3.18;100.00;98666.07;4186385;82;44416;-77
2021/12/08 06:15:49;;;;;;;34.95;11.73;;;;;;;-3.17;100.00;98675.14;4199341;83;44068;-76
2021/12/08 06:21:50;;;;;;;31.35;11.85;;;;;;;-3.11;100.00;98678.45;4183689;83;43366;-76
2021/12/08 06:27:52;;;;;;;37.60;12.88;;;;;;;-2.98;100.00;98677.23;4201922;83;44463;-78
2021/12/08 06:33:55;;;;;;;30.65;11.10;;;;;;;-2.99;100.00;98667.69;4183655;83;43366;-80
2021/12/08 06:40:07;;;;;;;29.20;10.85;;;;;;;-2.98;100.00;98657.50;4197106;83;43454;-78
2021/12/08 06:46:10;;;;;;;28.27;10.08;;;;;;;-3.19;100.00;98649.45;4184050;83;43461;-73
2021/12/08 06:52:22;;;;;;;24.90;9.48;;;;;;;-3.13;100.00;98646.23;4171321;83;43916;-76
2021/12/08 06:58:28;;;;;;;24.72;9.13;;;;;;;-3.24;100.00;98642.02;4185624;83;43994;-79
2021/12/08 07:04:53;;;;;;;23.73;10.00;;;;;;;-3.27;100.00;98634.95;4193694;83;44469;-76
2021/12/08 07:10:45;;;;;;;27.30;9.48;;;;;;;-3.15;100.00;98635.52;4181024;83;42925;-76
2021/12/08 07:16:51;;;;;;;30.17;10.72;;;;;;;-2.95;100.00;98644.87;4177246;83;43477;-75
2021/12/08 07:22:57;;;;;;;27.77;10.40;;;;;;;-2.99;100.00;98643.54;4158562;83;43392;-76
2021/12/08 07:29:01;;;;;;;30.72;10.32;;;;;;;-2.92;100.00;98646.38;4053229;85;43425;-75
2021/12/08 07:35:11;;;;;;;29.02;11.05;;;;;;;-2.89;100.00;98636.05;4121269;85;43416;-76
2021/12/08 07:41:29;;;;;;;30.55;11.28;;;;;;;-2.75;100.00;98631.52;4124867;84;43400;-76
2021/12/08 07:47:31;;;;;;;32.70;11.83;;;;;;;-2.85;100.00;98635.59;4077216;85;43366;-77
2021/12/08 07:53:33;;;;;;;30.25;11.18;;;;;;;-2.92;100.00;98646.38;4054916;86;43370;-76
2021/12/08 07:59:41;;;;;;;33.15;11.40;;;;;;;-2.80;100.00;98636.44;4131781;84;44146;-76
2021/12/08 08:05:44;;;;;;;33.65;12.00;;;;;;;-2.80;100.00;98645.65;4141382;84;43490;-75
2021/12/08 08:11:55;;;;;;;32.83;11.53;;;;;;;-2.75;100.00;98651.77;4132820;84;43509;-77
2021/12/08 08:17:55;;;;;;;32.63;11.00;;;;;;;-2.70;100.00;98650.80;4124758;84;43413;-79
2021/12/08 08:24:00;;;;;;;33.35;11.95;;;;;;;-2.59;100.00;98650.53;4142068;84;44266;-79
2021/12/08 08:30:12;;;;;;;30.40;11.93;;;;;;;-2.42;100.00;98646.17;4150928;84;28476;-82
2021/12/08 08:36:22;;;;;;;36.65;12.45;;;;;;;-2.73;100.00;98669.53;4162954;84;44422;-80
2021/12/08 08:42:29;;;;;;;33.20;12.68;;;;;;;-2.69;100.00;98664.28;4165488;84;44088;-79
2021/12/08 08:48:42;;;;;;;35.33;12.20;;;;;;;-2.81;100.00;98663.73;4168937;84;44440;-79
2021/12/08 08:54:47;;;;;;;30.72;11.95;;;;;;;-2.37;100.00;98656.23;4167040;84;43447;-79
2021/12/08 09:00:57;;;;;;;32.05;11.57;;;;;;;-2.56;100.00;98654.16;4175641;84;43371;-77
2021/12/08 09:07:04;;;;;;;29.63;11.75;;;;;;;-2.12;100.00;98653.73;4173135;84;43449;-78
2021/12/08 09:13:11;;;;;;;26.90;9.65;;;;;;;-2.31;100.00;98658.73;4166373;84;42675;-78
2021/12/08 09:19:18;;;;;;;26.35;10.48;;;;;;;-2.33;100.00;98651.48;4172312;84;43379;-80
2021/12/08 09:25:25;;;;;;;29.45;11.38;;;;;;;-2.42;100.00;98651.44;4168141;84;43390;-80
2021/12/08 09:31:38;;;;;;;25.65;10.53;;;;;;;-2.62;100.00;98648.22;4165364;84;43368;-79
2021/12/08 09:37:45;;;;;;;29.95;11.08;;;;;;;-2.55;100.00;98642.67;4160675;84;43416;-81
2021/12/08 09:43:52;;;;;;;22.27;9.83;;;;;;;-2.71;100.00;98621.52;4161603;85;43901;-79
2021/12/08 09:49:53;;;;;;;22.10;9.35;;;;;;;-2.79;100.00;98631.50;4189780;83;43915;-80
2021/12/08 09:55:55;;;;;;;24.15;9.73;;;;;;;-2.64;100.00;98628.30;4194256;83;43899;-78
2021/12/08 10:01:56;;;;;;;22.73;8.95;;;;;;;-2.54;100.00;98624.58;4193468;83;43954;-79
2021/12/08 10:07:58;;;;;;;25.35;9.53;;;;;;;-2.33;100.00;98627.31;4190387;83;42805;-80
2021/12/08 10:14:02;;;;;;;22.77;9.18;;;;;;;-2.61;100.00;98614.81;4189598;83;43933;-79
2021/12/08 10:20:20;;;;;;;24.87;9.55;;;;;;;-2.33;100.00;98608.04;4188028;83;42673;-81
2021/12/08 10:26:26;;;;;;;26.10;10.48;;;;;;;-2.18;100.00;98599.88;4182914;83;43351;-74
2021/12/08 10:32:36;;;;;;;27.07;10.03;;;;;;;-2.12;100.00;98595.78;4185975;83;43402;-74
2021/12/08 10:38:39;;;;;;;23.65;10.08;;;;;;;-2.25;100.00;98589.64;4102349;85;44497;-75
2021/12/08 10:44:48;;;;;;;21.15;8.58;;;;;;;-2.34;100.00;98595.86;4188578;85;43907;-72
2021/12/08 10:57:34;;;;;;;27.27;10.90;;;;;;;-2.26;100.00;98578.27;4183787;83;43390;-70
2021/12/08 11:03:36;;;;;;;24.75;9.35;;;;;;;-2.06;100.00;98562.19;4181488;85;42676;-69
2021/12/08 11:09:42;;;;;;;23.52;8.95;;;;;;;-2.12;100.00;98558.90;4182439;85;43923;-69
2021/12/08 11:15:45;;;;;;;21.30;8.78;;;;;;;-2.21;100.00;98555.91;4184046;83;28544;-75
2021/12/08 11:21:51;;;;;;;19.15;7.28;;;;;;;-2.12;100.00;98549.17;4170263;85;43919;-76
2021/12/08 11:27:52;;;;;;;14.75;7.70;;;;;;;-1.92;100.00;98545.44;4209713;84;28548;-74
2021/12/08 11:34:01;;;;;;;21.37;8.48;;;;;;;-2.16;100.00;98545.70;4206738;83;43922;-75
2021/12/08 11:40:06;;;;;;;23.22;8.63;;;;;;;-2.03;100.00;98526.80;4201210;84;43957;-76
2021/12/08 11:46:14;;;;;;;;;;;;;;;-1.87;100.00;98525.52;4193501;85;28487;-76
2021/12/08 11:52:20;;;;;;;19.40;8.28;;;;;;;-1.79;100.00;98510.20;4190653;85;43930;-75
2021/12/08 11:58:21;;;;;;;18.10;8.18;;;;;;;-2.06;100.00;98523.19;4199556;83;43984;-76
2021/12/08 12:04:22;;;;;;;21.57;8.58;;;;;;;-1.96;100.00;98514.63;4215116;84;43937;-78
2021/12/08 12:10:30;;;;;;;19.77;8.15;;;;;;;-1.84;100.00;98518.59;4236214;83;43975;-78
2021/12/08 12:16:32;;;;;;;18.42;8.53;;;;;;;-1.73;100.00;98512.16;4237669;83;43938;-76
2021/12/08 12:22:42;;;;;;;17.90;8.20;;;;;;;-1.74;100.00;98501.28;4216060;83;43896;-74
2021/12/08 12:29:04;;;;;;;18.60;8.65;;;;;;;-1.72;100.00;98492.74;4238564;83;43910;-75
2021/12/08 12:35:30;;;;;;;17.12;8.28;;;;;;;-1.86;100.00;98481.05;4216253;84;43942;-76
2021/12/08 12:41:32;;;;;;;17.92;8.75;;;;;;;-1.65;100.00;98494.22;4221229;83;43918;-73
2021/12/08 12:47:34;;;;;;;21.57;9.30;;;;;;;-1.82;100.00;98491.58;4211530;83;43950;-75
2021/12/08 12:53:53;;;;;;;18.48;8.15;;;;;;;-1.86;100.00;98488.95;4213983;83;43973;-74
2021/12/08 12:59:54;;;;;;;17.80;8.33;;;;;;;-1.60;100.00;98500.31;4214616;83;43887;-75
2021/12/08 13:05:56;;;;;;;16.62;7.25;;;;;;;-2.03;100.00;98493.88;4178667;83;43947;-74
2021/12/08 13:12:18;;;;;;;14.40;7.08;;;;;;;-2.14;100.00;98477.88;4181094;83;43928;-75
2021/12/08 13:18:23;;;;;;;14.65;7.45;;;;;;;-1.80;100.00;98472.97;4162228;83;43958;-73
2021/12/08 13:24:39;;;;;;;14.57;7.27;;;;;;;-1.76;100.00;98467.69;4184847;83;28590;-74
2021/12/08 13:30:52;;;;;;;19.82;8.50;;;;;;;-1.82;100.00;98471.81;4165580;84;43908;-72
2021/12/08 13:36:53;;;;;;;20.25;9.73;;;;;;;-1.91;100.00;98475.43;4187978;83;44148;-74
2021/12/08 13:42:56;;;;;;;19.85;9.23;;;;;;;-2.10;100.00;98473.44;4182228;83;28513;-73
2021/12/08 13:49:18;;;;;;;16.90;8.33;;;;;;;-2.51;100.00;98468.09;4195722;83;43942;-73
2021/12/08 13:55:27;;;;;;;23.40;9.90;;;;;;;-2.12;100.00;98470.66;4191948;83;44443;-72
2021/12/08 14:01:34;;;;;;;25.95;10.78;;;;;;;-2.29;100.00;98487.73;4181889;83;43134;-73
2021/12/08 14:07:41;;;;;;;30.12;12.85;;;;;;;-2.27;100.00;98493.66;4187405;83;43780;-71
2021/12/08 14:13:46;;;;;;;31.15;12.65;;;;;;;-2.55;100.00;98501.00;4178235;84;43454;-73
2021/12/08 14:19:48;;;;;;;28.32;11.88;;;;;;;-2.60;100.00;98498.84;4137743;85;28548;-71
2021/12/08 14:25:57;;;;;;;33.13;13.13;;;;;;;-2.73;100.00;98499.28;4184218;83;44124;-71
2021/12/08 14:31:59;;;;;;;32.65;12.65;;;;;;;-2.68;100.00;98493.55;4142516;84;44104;-72
2021/12/08 14:38:04;;;;;;;30.77;13.20;;;;;;;-2.62;100.00;98500.82;4142087;84;43433;-74
2021/12/08 14:44:12;;;;;;;30.23;12.18;;;;;;;-2.71;100.00;98489.45;4149032;84;28573;-70
2021/12/08 14:50:23;;;;;;;32.67;13.35;;;;;;;-2.78;100.00;98484.95;4135859;84;44162;-70
2021/12/08 14:56:21;;;;;;;26.00;12.13;;;;;;;-2.82;100.00;98473.44;4180531;83;42886;-73
2021/12/08 15:02:43;;;;;;;28.00;12.60;;;;;;;-2.68;100.00;98484.34;4181627;84;43363;-74
2021/12/08 15:08:44;;;;;;;30.52;13.30;;;;;;;-2.64;100.00;98473.84;4174726;83;43422;-71
2021/12/08 15:14:45;;;;;;;30.00;13.38;;;;;;;-2.79;100.00;98469.68;4181462;83;43414;-73
2021/12/08 15:20:49;;;;;;;31.07;12.88;;;;;;;-2.66;100.00;98463.94;4195019;83;43391;-74
2021/12/08 15:26:52;;;;;;;30.72;13.40;;;;;;;-2.93;100.00;98473.73;4143139;84;43451;-76
2021/12/08 15:33:03;;;;;;;30.40;13.58;;;;;;;-2.80;100.00;98466.21;4158635;84;43411;-72
2021/12/08 15:39:04;;;;;;;30.48;13.38;;;;;;;-2.82;100.00;98469.50;4210592;83;43514;-72
2021/12/08 15:45:07;;;;;;;29.85;13.43;;;;;;;-2.91;100.00;98463.87;4221069;82;43422;-71
2021/12/08 15:51:09;;;;;;;29.50;12.98;;;;;;;-3.03;100.00;98473.03;4223624;82;43433;-71
2021/12/08 15:57:21;;;;;;;30.85;14.58;;;;;;;-2.65;100.00;98472.20;4218952;82;44111;-75
2021/12/08 16:03:39;;;;;;;29.23;13.22;;;;;;;-2.84;100.00;98476.73;4236329;82;43469;-71
2021/12/08 16:09:40;;;;;;;27.65;13.30;;;;;;;-3.05;100.00;98469.23;4217105;82;43382;-70
2021/12/08 16:15:51;;;;;;;28.85;12.60;;;;;;;-2.96;100.00;98473.55;4232808;82;43409;-70
2021/12/08 16:21:54;;;;;;;29.12;13.43;;;;;;;-2.92;100.00;98481.11;4227808;82;43394;-71
2021/12/08 16:27:57;;;;;;;31.12;13.30;;;;;;;-3.10;100.00;98489.42;4237660;82;43400;-69
2021/12/08 16:33:58;;;;;;;27.80;12.58;;;;;;;-3.14;100.00;98488.09;4214466;83;43373;-71
2021/12/08 16:46:06;;;;;;;23.77;10.90;;;;;;;-2.67;100.00;98480.24;4226951;84;43232;-70
2021/12/08 16:52:08;;;;;;;23.85;11.18;;;;;;;-2.66;100.00;98462.63;4225727;83;43287;-68
2021/12/08 16:58:09;;;;;;;22.25;10.53;;;;;;;-2.94;100.00;98466.83;4223567;83;44400;-70
2021/12/08 17:04:11;;;;;;;22.85;11.60;;;;;;;-3.09;100.00;98475.80;4200101;83;42853;-70
2021/12/08 17:10:14;;;;;;;18.67;10.08;;;;;;;-3.09;100.00;98484.49;4197917;84;44430;-69
2021/12/08 17:16:17;;;;;;;19.32;9.65;;;;;;;-3.02;100.00;98468.94;4178714;84;43895;-71
2021/12/08 17:22:18;;;;;;;17.87;8.68;;;;;;;-3.14;100.00;98481.53;4217367;83;43903;-71
2021/12/08 17:28:23;;;;;;;23.95;9.58;;;;;;;-3.26;100.00;98478.33;4171580;84;43916;-70
2021/12/08 17:34:25;;;;;;;21.37;10.23;;;;;;;-3.22;100.00;98473.59;4127499;86;44496;-72
2021/12/08 17:40:27;;;;;;;19.35;9.78;;;;;;;-3.14;100.00;98473.64;4135882;84;43936;-72
2021/12/08 17:46:31;;;;;;;22.62;10.93;;;;;;;-3.19;100.00;98467.20;4148807;85;44467;-73
2021/12/08 17:52:32;;;;;;;17.90;8.65;;;;;;;-3.03;100.00;98463.83;4136323;85;43893;-70
2021/12/08 17:58:34;;;;;;;20.23;9.45;;;;;;;-2.93;100.00;98476.36;4156864;85;43892;-70
2021/12/08 18:04:35;;;;;;;18.25;8.70;;;;;;;-3.00;100.00;98466.97;4149688;85;43944;-70
2021/12/08 18:10:37;;;;;;;19.82;9.98;;;;;;;-3.48;100.00;98473.12;4152537;84;44418;-70
2021/12/08 18:16:39;;;;;;;23.20;10.28;;;;;;;-3.25;100.00;98481.29;4143256;84;44448;-72
2021/12/08 18:22:42;;;;;;;28.23;10.15;;;;;;;-3.31;100.00;98471.89;4127715;85;43468;-71
2021/12/08 18:28:45;;;;;;;21.57;10.48;;;;;;;-3.49;100.00;98460.94;4199807;83;44494;-72
2021/12/08 18:34:53;;;;;;;19.20;9.25;;;;;;;-3.55;100.00;98453.69;4191101;83;43887;-74
2021/12/08 18:40:52;;;;;;;21.87;10.65;;;;;;;-3.55;100.00;98447.11;4226896;83;44450;-73
2021/12/08 18:46:54;;;;;;;21.93;10.32;;;;;;;-3.39;100.00;98446.39;4223972;83;44423;-68
2021/12/08 18:52:55;;;;;;;21.87;10.38;;;;;;;-3.73;100.00;98432.21;4228863;82;44451;-70
2021/12/08 18:58:57;;;;;;;22.25;11.15;;;;;;;-3.61;100.00;98428.02;4242684;82;44431;-67
2021/12/08 19:04:58;;;;;;;23.40;10.45;;;;;;;-3.68;100.00;98433.91;4233833;82;44439;-67
2021/12/08 19:10:59;;;;;;;22.00;11.10;;;;;;;-3.97;100.00;98428.44;4229157;82;44474;-69
2021/12/08 19:17:03;;;;;;;23.20;10.08;;;;;;;-3.68;100.00;98418.61;4205265;83;44929;-69
2021/12/08 19:23:08;;;;;;;23.45;10.50;;;;;;;-3.73;100.00;98417.77;4192286;83;44408;-68
2021/12/08 19:29:11;;;;;;;27.67;10.82;;;;;;;-3.59;100.00;98419.48;4194408;83;43367;-68
2021/12/08 19:35:13;;;;;;;21.95;10.72;;;;;;;-3.73;100.00;98417.77;4190629;83;44503;-68
2021/12/08 19:41:15;;;;;;;23.80;11.03;;;;;;;-3.60;100.00;98416.52;4187178;84;43635;-70
2021/12/08 19:47:17;;;;;;;27.62;10.82;;;;;;;-3.64;100.00;98415.52;4189876;83;43426;-70
2021/12/08 19:53:20;;;;;;;20.82;10.70;;;;;;;-3.84;100.00;98408.34;4190875;83;44432;-72
2021/12/08 19:59:21;;;;;;;23.20;10.25;;;;;;;-3.87;100.00;98414.39;4178406;83;44455;-70
2021/12/08 20:05:24;;;;;;;23.40;10.13;;;;;;;-3.79;100.00;98415.27;4197944;83;44463;-71
2021/12/08 20:11:29;;;;;;;22.37;10.15;;;;;;;-3.95;100.00;98415.97;4186399;83;44483;-73
2021/12/08 20:17:33;;;;;;;22.77;10.28;;;;;;;-3.94;100.00;98404.99;4189284;83;44424;-70
2021/12/08 20:23:41;;;;;;;22.35;9.73;;;;;;;-3.72;100.00;98402.33;4187468;83;43996;-71
2021/12/08 20:29:42;;;;;;;24.52;10.23;;;;;;;-3.86;100.00;98394.52;4212373;83;43719;-72
2021/12/08 20:35:44;;;;;;;23.80;10.05;;;;;;;-3.72;100.00;98390.50;4216725;82;42868;-71
2021/12/08 20:41:45;;;;;;;24.52;11.08;;;;;;;-3.78;100.00;98391.14;4207905;82;42947;-73
2021/12/08 20:47:50;;;;;;;25.80;11.05;;;;;;;-3.79;100.00;98387.68;4228869;82;42855;-73
2021/12/08 20:53:54;;;;;;;23.43;9.17;;;;;;;-3.83;100.00;98379.78;4194797;82;28480;-73
2021/12/08 20:59:58;;;;;;;22.82;9.90;;;;;;;-3.78;100.00;98372.25;4265954;82;44186;-78
2021/12/08 21:05:59;;;;;;;20.05;9.28;;;;;;;-3.73;100.00;98374.41;4248451;82;44421;-77
2021/12/08 21:12:00;;;;;;;25.30;10.95;;;;;;;-3.71;100.00;98377.70;4187884;84;42859;-77
2021/12/08 21:18:05;;;;;;;19.12;8.83;;;;;;;-3.54;100.00;98375.17;4224702;83;43910;-77
2021/12/08 21:24:06;;;;;;;22.25;9.58;;;;;;;-3.88;100.00;98379.91;4228672;83;43904;-76
2021/12/08 21:30:10;;;;;;;23.80;10.18;;;;;;;-3.75;100.00;98379.00;4202819;83;43702;-81
2021/12/08 21:36:12;;;;;;;27.53;11.10;;;;;;;-3.76;100.00;98364.22;4186472;82;28568;-77
2021/12/08 21:42:14;;;;;;;25.43;11.05;;;;;;;-3.79;100.00;98352.72;4236036;82;43254;-75
2021/12/08 21:48:15;;;;;;;24.77;10.32;;;;;;;-3.50;100.00;98362.87;4247056;82;42891;-75
2021/12/08 21:54:16;;;;;;;23.57;10.85;;;;;;;-3.47;100.00;98362.22;4242084;83;44483;-78
2021/12/08 22:00:23;;;;;;;26.62;11.50;;;;;;;-3.45;100.00;98357.16;4239068;83;42934;-79
2021/12/08 22:06:27;;;;;;;22.87;10.98;;;;;;;-3.59;100.00;98349.84;4243082;83;44487;-78
2021/12/08 22:12:31;;;;;;;26.80;11.75;;;;;;;-3.66;100.00;98353.11;4263092;82;43282;-78
2021/12/08 22:18:37;;;;;;;27.20;11.50;;;;;;;-3.45;100.00;98346.64;4182987;84;43333;-79
2021/12/08 22:24:38;;;;;;;26.60;11.30;;;;;;;-3.38;100.00;98342.41;4155221;85;43267;-78
2021/12/08 22:30:40;;;;;;;24.32;11.55;;;;;;;-3.58;100.00;98348.38;4186674;84;43308;-78
2021/12/08 22:36:43;;;;;;;25.35;10.63;;;;;;;-3.46;100.00;98338.42;4198050;84;42787;-78
2021/12/08 22:42:45;;;;;;;24.70;10.93;;;;;;;-3.59;100.00;98343.27;4216666;83;42936;-79
2021/12/08 22:48:48;;;;;;;25.60;11.18;;;;;;;-3.58;100.00;98343.62;4199771;83;42854;-77
2021/12/08 22:54:50;;;;;;;24.80;10.65;;;;;;;-3.61;100.00;98336.04;4255232;83;43236;-78
2021/12/08 23:01:08;;;;;;;27.67;11.85;;;;;;;-3.69;100.00;98338.98;4240676;83;43393;-79
2021/12/08 23:07:11;;;;;;;27.80;11.55;;;;;;;-3.62;100.00;98347.05;4206716;83;43384;-81
2021/12/08 23:13:18;;;;;;;28.73;11.53;;;;;;;-3.60;100.00;98350.34;4205523;83;43367;-79
2021/12/08 23:19:21;;;;;;;30.88;12.30;;;;;;;-3.51;100.00;98359.08;4189341;85;28561;-79
2021/12/08 23:25:22;;;;;;;25.75;10.98;;;;;;;-3.56;100.00;98358.74;4163862;83;42939;-78
2021/12/08 23:31:25;;;;;;;28.60;12.13;;;;;;;-3.52;100.00;98362.70;4159231;85;43461;-76
2021/12/08 23:37:43;;;;;;;27.87;12.18;;;;;;;-3.30;100.00;98356.54;4222742;83;43476;-79
2021/12/08 23:43:29;;;;;;;28.50;11.40;;;;;;;-3.28;100.00;98352.78;4190240;83;43425;-76
2021/12/08 23:49:31;;;;;;;25.02;11.00;;;;;;;-3.26;100.00;98354.75;4197019;83;42858;-76
2021/12/08 23:55:36;;;;;;;23.80;10.25;;;;;;;-3.41;100.00;98346.64;4229672;83;44436;-77
